sensor_id;sensor_type;location;lat;lon;timestamp;P1;durP1;ratioP1;P2;durP2;ratioP2
3337;SDS011;1682;49.286;10.788;2023-04-06T00:02:17;18.07;;;12.50;;
3337;SDS011;1682;49.286;10.788;2023-04-06T00:04:44;29.00;;;16.87;;
3337;SDS011;1682;49.286;10.788;2023-04-06T00:07:12;73.50;;;31.40;;
3337;SDS011;1682;49.286;10.788;2023-04-06T00:09:40;42.60;;;19.10;;
3337;SDS011;1682;49.286;10.788;2023-04-06T00:12:07;20.90;;;9.60;;
3337;SDS011;1682;49.286;10.788;2023-04-06T00:14:35;19.53;;;11.13;;
3337;SDS011;1682;49.286;10.788;2023-04-06T00:17:02;10.77;;;9.27;;
3337;SDS011;1682;49.286;10.788;2023-04-06T00:19:29;14.80;;;8.37;;
3337;SDS011;1682;49.286;10.788;2023-04-06T00:21:57;29.67;;;16.07;;
3337;SDS011;1682;49.286;10.788;2023-04-06T00:24:24;34.67;;;19.27;;
3337;SDS011;1682;49.286;10.788;2023-04-06T00:26:53;27.80;;;16.50;;
3337;SDS011;1682;49.286;10.788;2023-04-06T00:29:20;13.60;;;11.03;;
3337;SDS011;1682;49.286;10.788;2023-04-06T00:31:47;17.73;;;11.33;;
3337;SDS011;1682;49.286;10.788;2023-04-06T00:34:15;13.63;;;10.30;;
3337;SDS011;1682;49.286;10.788;2023-04-06T00:36:42;13.57;;;9.20;;
3337;SDS011;1682;49.286;10.788;2023-04-06T00:39:09;13.87;;;10.60;;
3337;SDS011;1682;49.286;10.788;2023-04-06T00:41:36;13.97;;;9.30;;
3337;SDS011;1682;49.286;10.788;2023-04-06T00:44:06;12.17;;;9.50;;
3337;SDS011;1682;49.286;10.788;2023-04-06T00:46:33;26.70;;;13.03;;
3337;SDS011;1682;49.286;10.788;2023-04-06T00:49:01;15.23;;;11.13;;
3337;SDS011;1682;49.286;10.788;2023-04-06T00:51:29;10.97;;;8.70;;
3337;SDS011;1682;49.286;10.788;2023-04-06T00:53:56;13.50;;;9.27;;
3337;SDS011;1682;49.286;10.788;2023-04-06T00:56:23;11.57;;;8.03;;
3337;SDS011;1682;49.286;10.788;2023-04-06T00:58:51;13.60;;;9.27;;
3337;SDS011;1682;49.286;10.788;2023-04-06T01:01:20;9.33;;;8.40;;
3337;SDS011;1682;49.286;10.788;2023-04-06T01:03:48;12.17;;;8.13;;
3337;SDS011;1682;49.286;10.788;2023-04-06T01:06:15;13.87;;;8.97;;
3337;SDS011;1682;49.286;10.788;2023-04-06T01:08:43;14.90;;;10.40;;
3337;SDS011;1682;49.286;10.788;2023-04-06T01:11:10;11.60;;;10.50;;
3337;SDS011;1682;49.286;10.788;2023-04-06T01:13:37;14.93;;;10.77;;
3337;SDS011;1682;49.286;10.788;2023-04-06T01:16:05;9.57;;;8.00;;
3337;SDS011;1682;49.286;10.788;2023-04-06T01:18:33;8.03;;;7.20;;
3337;SDS011;1682;49.286;10.788;2023-04-06T01:21:01;10.03;;;9.03;;
3337;SDS011;1682;49.286;10.788;2023-04-06T01:23:30;8.00;;;7.20;;
3337;SDS011;1682;49.286;10.788;2023-04-06T01:25:57;9.73;;;8.10;;
3337;SDS011;1682;49.286;10.788;2023-04-06T01:28:24;13.20;;;8.63;;
3337;SDS011;1682;49.286;10.788;2023-04-06T01:30:51;13.40;;;9.77;;
3337;SDS011;1682;49.286;10.788;2023-04-06T01:33:19;8.17;;;7.37;;
3337;SDS011;1682;49.286;10.788;2023-04-06T01:35:46;13.70;;;8.57;;
3337;SDS011;1682;49.286;10.788;2023-04-06T01:38:13;12.67;;;9.17;;
3337;SDS011;1682;49.286;10.788;2023-04-06T01:40:42;12.33;;;7.80;;
3337;SDS011;1682;49.286;10.788;2023-04-06T01:43:09;9.57;;;7.87;;
3337;SDS011;1682;49.286;10.788;2023-04-06T01:45:37;9.53;;;8.27;;
3337;SDS011;1682;49.286;10.788;2023-04-06T01:48:04;9.37;;;7.53;;
3337;SDS011;1682;49.286;10.788;2023-04-06T01:50:32;13.30;;;9.07;;
3337;SDS011;1682;49.286;10.788;2023-04-06T01:52:59;11.67;;;9.20;;
3337;SDS011;1682;49.286;10.788;2023-04-06T01:55:26;15.70;;;8.70;;
3337;SDS011;1682;49.286;10.788;2023-04-06T01:57:55;14.43;;;9.40;;
3337;SDS011;1682;49.286;10.788;2023-04-06T02:00:22;22.43;;;9.00;;
3337;SDS011;1682;49.286;10.788;2023-04-06T02:02:49;13.50;;;8.93;;
3337;SDS011;1682;49.286;10.788;2023-04-06T02:05:17;12.97;;;8.43;;
3337;SDS011;1682;49.286;10.788;2023-04-06T02:07:44;11.07;;;8.17;;
3337;SDS011;1682;49.286;10.788;2023-04-06T02:10:12;12.77;;;8.80;;
3337;SDS011;1682;49.286;10.788;2023-04-06T02:12:40;11.00;;;8.50;;
3337;SDS011;1682;49.286;10.788;2023-04-06T02:15:09;9.37;;;8.30;;
3337;SDS011;1682;49.286;10.788;2023-04-06T02:17:38;9.67;;;8.60;;
3337;SDS011;1682;49.286;10.788;2023-04-06T02:20:05;10.10;;;7.93;;
3337;SDS011;1682;49.286;10.788;2023-04-06T02:22:33;11.07;;;8.10;;
3337;SDS011;1682;49.286;10.788;2023-04-06T02:25:01;16.37;;;8.87;;
3337;SDS011;1682;49.286;10.788;2023-04-06T02:27:28;11.43;;;7.80;;
3337;SDS011;1682;49.286;10.788;2023-04-06T02:29:55;10.20;;;8.03;;
3337;SDS011;1682;49.286;10.788;2023-04-06T02:32:24;9.43;;;7.80;;
3337;SDS011;1682;49.286;10.788;2023-04-06T02:34:51;12.43;;;7.63;;
3337;SDS011;1682;49.286;10.788;2023-04-06T02:37:18;8.43;;;7.40;;
3337;SDS011;1682;49.286;10.788;2023-04-06T02:39:46;11.00;;;9.33;;
3337;SDS011;1682;49.286;10.788;2023-04-06T02:42:13;13.13;;;9.33;;
3337;SDS011;1682;49.286;10.788;2023-04-06T02:44:41;12.27;;;7.40;;
3337;SDS011;1682;49.286;10.788;2023-04-06T02:47:08;8.60;;;7.20;;
3337;SDS011;1682;49.286;10.788;2023-04-06T02:49:37;10.30;;;7.97;;
3337;SDS011;1682;49.286;10.788;2023-04-06T02:52:04;13.13;;;9.47;;
3337;SDS011;1682;49.286;10.788;2023-04-06T02:54:31;11.63;;;9.27;;
3337;SDS011;1682;49.286;10.788;2023-04-06T02:56:59;14.60;;;9.53;;
3337;SDS011;1682;49.286;10.788;2023-04-06T02:59:26;13.93;;;10.20;;
3337;SDS011;1682;49.286;10.788;2023-04-06T03:01:53;13.17;;;9.03;;
3337;SDS011;1682;49.286;10.788;2023-04-06T03:04:21;9.27;;;8.00;;
3337;SDS011;1682;49.286;10.788;2023-04-06T03:06:52;15.43;;;9.43;;
3337;SDS011;1682;49.286;10.788;2023-04-06T03:09:19;11.83;;;8.43;;
3337;SDS011;1682;49.286;10.788;2023-04-06T03:11:47;8.67;;;7.87;;
3337;SDS011;1682;49.286;10.788;2023-04-06T03:14:14;10.83;;;7.80;;
3337;SDS011;1682;49.286;10.788;2023-04-06T03:16:42;9.10;;;8.20;;
3337;SDS011;1682;49.286;10.788;2023-04-06T03:19:10;10.30;;;7.87;;
3337;SDS011;1682;49.286;10.788;2023-04-06T03:21:37;9.77;;;7.17;;
3337;SDS011;1682;49.286;10.788;2023-04-06T03:24:06;11.30;;;8.03;;
3337;SDS011;1682;49.286;10.788;2023-04-06T03:26:33;12.70;;;8.07;;
3337;SDS011;1682;49.286;10.788;2023-04-06T03:29:01;9.60;;;7.03;;
3337;SDS011;1682;49.286;10.788;2023-04-06T03:31:28;9.80;;;8.30;;
3337;SDS011;1682;49.286;10.788;2023-04-06T03:33:55;9.93;;;8.00;;
3337;SDS011;1682;49.286;10.788;2023-04-06T03:36:22;17.30;;;8.97;;
3337;SDS011;1682;49.286;10.788;2023-04-06T03:38:50;9.27;;;7.70;;
3337;SDS011;1682;49.286;10.788;2023-04-06T03:41:19;7.83;;;7.07;;
3337;SDS011;1682;49.286;10.788;2023-04-06T03:43:47;8.53;;;7.47;;
3337;SDS011;1682;49.286;10.788;2023-04-06T03:46:15;13.33;;;7.57;;
3337;SDS011;1682;49.286;10.788;2023-04-06T03:48:42;13.80;;;9.17;;
3337;SDS011;1682;49.286;10.788;2023-04-06T03:51:10;12.07;;;8.47;;
3337;SDS011;1682;49.286;10.788;2023-04-06T03:53:37;11.97;;;9.30;;
3337;SDS011;1682;49.286;10.788;2023-04-06T03:56:05;11.23;;;8.50;;
3337;SDS011;1682;49.286;10.788;2023-04-06T03:58:33;10.13;;;9.10;;
3337;SDS011;1682;49.286;10.788;2023-04-06T04:01:00;9.20;;;8.00;;
3337;SDS011;1682;49.286;10.788;2023-04-06T04:03:28;8.80;;;7.77;;
3337;SDS011;1682;49.286;10.788;2023-04-06T04:05:55;15.53;;;8.90;;
3337;SDS011;1682;49.286;10.788;2023-04-06T04:08:23;8.70;;;7.70;;
3337;SDS011;1682;49.286;10.788;2023-04-06T04:10:50;24.10;;;9.53;;
3337;SDS011;1682;49.286;10.788;2023-04-06T04:13:17;10.93;;;8.77;;
3337;SDS011;1682;49.286;10.788;2023-04-06T04:15:46;11.80;;;10.50;;
3337;SDS011;1682;49.286;10.788;2023-04-06T04:18:13;16.57;;;11.13;;
3337;SDS011;1682;49.286;10.788;2023-04-06T04:20:41;19.30;;;11.50;;
3337;SDS011;1682;49.286;10.788;2023-04-06T04:23:08;22.00;;;12.87;;
3337;SDS011;1682;49.286;10.788;2023-04-06T04:25:35;23.23;;;18.10;;
3337;SDS011;1682;49.286;10.788;2023-04-06T04:28:02;20.30;;;14.33;;
3337;SDS011;1682;49.286;10.788;2023-04-06T04:30:30;15.87;;;12.10;;
3337;SDS011;1682;49.286;10.788;2023-04-06T04:32:58;13.73;;;11.10;;
3337;SDS011;1682;49.286;10.788;2023-04-06T04:35:26;16.17;;;11.47;;
3337;SDS011;1682;49.286;10.788;2023-04-06T04:37:53;16.10;;;12.10;;
3337;SDS011;1682;49.286;10.788;2023-04-06T04:40:21;16.70;;;10.67;;
3337;SDS011;1682;49.286;10.788;2023-04-06T04:42:48;14.57;;;11.17;;
3337;SDS011;1682;49.286;10.788;2023-04-06T04:45:17;16.80;;;11.70;;
3337;SDS011;1682;49.286;10.788;2023-04-06T04:47:44;16.20;;;11.60;;
3337;SDS011;1682;49.286;10.788;2023-04-06T04:50:13;13.03;;;10.37;;
3337;SDS011;1682;49.286;10.788;2023-04-06T04:52:41;12.87;;;9.30;;
3337;SDS011;1682;49.286;10.788;2023-04-06T04:55:08;12.00;;;10.20;;
3337;SDS011;1682;49.286;10.788;2023-04-06T04:57:36;11.33;;;10.10;;
3337;SDS011;1682;49.286;10.788;2023-04-06T05:00:03;13.73;;;9.90;;
3337;SDS011;1682;49.286;10.788;2023-04-06T05:02:31;9.97;;;9.03;;
3337;SDS011;1682;49.286;10.788;2023-04-06T05:04:58;14.80;;;10.70;;
3337;SDS011;1682;49.286;10.788;2023-04-06T05:07:27;17.40;;;9.30;;
3337;SDS011;1682;49.286;10.788;2023-04-06T05:09:54;10.13;;;9.10;;
3337;SDS011;1682;49.286;10.788;2023-04-06T05:12:22;10.23;;;8.80;;
3337;SDS011;1682;49.286;10.788;2023-04-06T05:14:49;13.40;;;10.57;;
3337;SDS011;1682;49.286;10.788;2023-04-06T05:17:16;10.37;;;8.77;;
3337;SDS011;1682;49.286;10.788;2023-04-06T05:19:43;12.27;;;10.10;;
3337;SDS011;1682;49.286;10.788;2023-04-06T05:22:11;12.67;;;9.07;;
3337;SDS011;1682;49.286;10.788;2023-04-06T05:24:42;12.90;;;9.50;;
3337;SDS011;1682;49.286;10.788;2023-04-06T05:27:09;11.50;;;9.77;;
3337;SDS011;1682;49.286;10.788;2023-04-06T05:29:37;10.50;;;9.43;;
3337;SDS011;1682;49.286;10.788;2023-04-06T05:32:04;10.10;;;9.13;;
3337;SDS011;1682;49.286;10.788;2023-04-06T05:34:32;11.77;;;9.03;;
3337;SDS011;1682;49.286;10.788;2023-04-06T05:36:59;21.20;;;10.67;;
3337;SDS011;1682;49.286;10.788;2023-04-06T05:39:26;16.27;;;11.70;;
3337;SDS011;1682;49.286;10.788;2023-04-06T05:41:55;18.23;;;13.37;;
3337;SDS011;1682;49.286;10.788;2023-04-06T05:44:22;17.43;;;12.70;;
3337;SDS011;1682;49.286;10.788;2023-04-06T05:46:49;12.57;;;11.23;;
3337;SDS011;1682;49.286;10.788;2023-04-06T05:49:17;18.33;;;11.97;;
3337;SDS011;1682;49.286;10.788;2023-04-06T05:51:44;18.03;;;13.97;;
3337;SDS011;1682;49.286;10.788;2023-04-06T05:54:11;18.10;;;11.77;;
3337;SDS011;1682;49.286;10.788;2023-04-06T05:56:39;18.03;;;15.20;;
3337;SDS011;1682;49.286;10.788;2023-04-06T05:59:07;20.60;;;16.00;;
3337;SDS011;1682;49.286;10.788;2023-04-06T06:01:35;24.57;;;15.83;;
3337;SDS011;1682;49.286;10.788;2023-04-06T06:04:02;28.97;;;20.60;;
3337;SDS011;1682;49.286;10.788;2023-04-06T06:06:29;33.27;;;22.30;;
3337;SDS011;1682;49.286;10.788;2023-04-06T06:08:57;36.40;;;23.27;;
3337;SDS011;1682;49.286;10.788;2023-04-06T06:11:25;20.13;;;17.37;;
3337;SDS011;1682;49.286;10.788;2023-04-06T06:13:53;15.07;;;13.47;;
3337;SDS011;1682;49.286;10.788;2023-04-06T06:16:21;14.73;;;10.20;;
3337;SDS011;1682;49.286;10.788;2023-04-06T06:18:49;12.80;;;11.50;;
3337;SDS011;1682;49.286;10.788;2023-04-06T06:21:16;15.57;;;12.30;;
3337;SDS011;1682;49.286;10.788;2023-04-06T06:23:44;18.23;;;12.10;;
3337;SDS011;1682;49.286;10.788;2023-04-06T06:26:13;26.17;;;16.17;;
3337;SDS011;1682;49.286;10.788;2023-04-06T06:28:40;36.27;;;24.77;;
3337;SDS011;1682;49.286;10.788;2023-04-06T06:31:07;15.30;;;12.30;;
3337;SDS011;1682;49.286;10.788;2023-04-06T06:33:37;8.63;;;7.73;;
3337;SDS011;1682;49.286;10.788;2023-04-06T06:36:04;19.53;;;9.80;;
3337;SDS011;1682;49.286;10.788;2023-04-06T06:38:31;12.10;;;6.60;;
3337;SDS011;1682;49.286;10.788;2023-04-06T06:40:58;6.03;;;5.53;;
3337;SDS011;1682;49.286;10.788;2023-04-06T06:43:26;6.10;;;5.63;;
3337;SDS011;1682;49.286;10.788;2023-04-06T06:45:53;8.70;;;6.23;;
3337;SDS011;1682;49.286;10.788;2023-04-06T06:48:20;12.10;;;7.80;;
3337;SDS011;1682;49.286;10.788;2023-04-06T06:50:49;9.00;;;6.73;;
3337;SDS011;1682;49.286;10.788;2023-04-06T06:53:16;10.73;;;6.30;;
3337;SDS011;1682;49.286;10.788;2023-04-06T06:55:44;9.10;;;6.77;;
3337;SDS011;1682;49.286;10.788;2023-04-06T06:58:11;9.20;;;6.30;;
3337;SDS011;1682;49.286;10.788;2023-04-06T07:00:38;7.43;;;6.80;;
3337;SDS011;1682;49.286;10.788;2023-04-06T07:03:06;12.63;;;6.47;;
3337;SDS011;1682;49.286;10.788;2023-04-06T07:05:33;6.20;;;5.70;;
3337;SDS011;1682;49.286;10.788;2023-04-06T07:08:02;9.03;;;5.83;;
3337;SDS011;1682;49.286;10.788;2023-04-06T07:10:29;8.20;;;6.23;;
3337;SDS011;1682;49.286;10.788;2023-04-06T07:12:57;8.50;;;5.60;;
3337;SDS011;1682;49.286;10.788;2023-04-06T07:15:24;6.67;;;6.07;;
3337;SDS011;1682;49.286;10.788;2023-04-06T07:17:51;9.57;;;6.90;;
3337;SDS011;1682;49.286;10.788;2023-04-06T07:20:19;7.33;;;6.20;;
3337;SDS011;1682;49.286;10.788;2023-04-06T07:22:46;7.20;;;6.33;;
3337;SDS011;1682;49.286;10.788;2023-04-06T07:25:15;9.48;;;8.48;;
3337;SDS011;1682;49.286;10.788;2023-04-06T07:27:43;9.30;;;7.80;;
3337;SDS011;1682;49.286;10.788;2023-04-06T07:30:10;7.10;;;6.40;;
3337;SDS011;1682;49.286;10.788;2023-04-06T07:32:38;6.30;;;5.70;;
3337;SDS011;1682;49.286;10.788;2023-04-06T07:35:05;8.00;;;7.10;;
3337;SDS011;1682;49.286;10.788;2023-04-06T07:37:32;8.67;;;7.77;;
3337;SDS011;1682;49.286;10.788;2023-04-06T07:40:00;11.97;;;7.60;;
3337;SDS011;1682;49.286;10.788;2023-04-06T07:42:28;7.70;;;5.27;;
3337;SDS011;1682;49.286;10.788;2023-04-06T07:44:56;7.90;;;7.10;;
3337;SDS011;1682;49.286;10.788;2023-04-06T07:47:23;10.30;;;7.43;;
3337;SDS011;1682;49.286;10.788;2023-04-06T07:49:51;6.80;;;5.73;;
3337;SDS011;1682;49.286;10.788;2023-04-06T07:52:18;9.90;;;7.30;;
3337;SDS011;1682;49.286;10.788;2023-04-06T07:54:46;10.97;;;7.80;;
3337;SDS011;1682;49.286;10.788;2023-04-06T07:57:14;13.57;;;7.63;;
3337;SDS011;1682;49.286;10.788;2023-04-06T07:59:43;8.70;;;6.80;;
3337;SDS011;1682;49.286;10.788;2023-04-06T08:02:10;9.47;;;6.63;;
3337;SDS011;1682;49.286;10.788;2023-04-06T08:04:37;13.47;;;9.80;;
3337;SDS011;1682;49.286;10.788;2023-04-06T08:07:04;7.10;;;6.43;;
3337;SDS011;1682;49.286;10.788;2023-04-06T08:09:32;8.93;;;6.83;;
3337;SDS011;1682;49.286;10.788;2023-04-06T08:11:59;10.30;;;7.13;;
3337;SDS011;1682;49.286;10.788;2023-04-06T08:14:26;14.70;;;10.77;;
3337;SDS011;1682;49.286;10.788;2023-04-06T08:16:55;10.67;;;8.00;;
3337;SDS011;1682;49.286;10.788;2023-04-06T08:19:22;10.23;;;7.40;;
3337;SDS011;1682;49.286;10.788;2023-04-06T08:21:50;8.17;;;7.37;;
3337;SDS011;1682;49.286;10.788;2023-04-06T08:24:17;7.83;;;7.03;;
3337;SDS011;1682;49.286;10.788;2023-04-06T08:26:44;7.47;;;6.50;;
3337;SDS011;1682;49.286;10.788;2023-04-06T08:29:12;8.63;;;6.90;;
3337;SDS011;1682;49.286;10.788;2023-04-06T08:31:39;6.90;;;6.00;;
3337;SDS011;1682;49.286;10.788;2023-04-06T08:34:08;8.03;;;6.60;;
3337;SDS011;1682;49.286;10.788;2023-04-06T08:36:36;9.47;;;8.27;;
3337;SDS011;1682;49.286;10.788;2023-04-06T08:39:03;14.77;;;8.80;;
3337;SDS011;1682;49.286;10.788;2023-04-06T08:41:30;6.90;;;6.20;;
3337;SDS011;1682;49.286;10.788;2023-04-06T08:43:59;8.47;;;7.53;;
3337;SDS011;1682;49.286;10.788;2023-04-06T08:46:26;8.07;;;7.30;;
3337;SDS011;1682;49.286;10.788;2023-04-06T08:48:55;11.40;;;9.03;;
3337;SDS011;1682;49.286;10.788;2023-04-06T08:51:25;9.60;;;7.30;;
3337;SDS011;1682;49.286;10.788;2023-04-06T08:53:53;14.70;;;7.77;;
3337;SDS011;1682;49.286;10.788;2023-04-06T08:56:21;8.43;;;7.47;;
3337;SDS011;1682;49.286;10.788;2023-04-06T08:58:48;10.53;;;8.43;;
3337;SDS011;1682;49.286;10.788;2023-04-06T09:01:16;7.43;;;6.37;;
3337;SDS011;1682;49.286;10.788;2023-04-06T09:03:44;9.17;;;6.70;;
3337;SDS011;1682;49.286;10.788;2023-04-06T09:06:13;9.63;;;7.93;;
3337;SDS011;1682;49.286;10.788;2023-04-06T09:08:42;15.73;;;9.17;;
3337;SDS011;1682;49.286;10.788;2023-04-06T09:11:09;11.50;;;8.67;;
3337;SDS011;1682;49.286;10.788;2023-04-06T09:13:46;11.03;;;7.57;;
3337;SDS011;1682;49.286;10.788;2023-04-06T09:16:14;12.97;;;8.97;;
3337;SDS011;1682;49.286;10.788;2023-04-06T09:18:41;10.90;;;8.13;;
3337;SDS011;1682;49.286;10.788;2023-04-06T09:21:09;11.13;;;7.87;;
3337;SDS011;1682;49.286;10.788;2023-04-06T09:23:36;8.07;;;7.27;;
3337;SDS011;1682;49.286;10.788;2023-04-06T09:26:09;10.00;;;7.87;;
3337;SDS011;1682;49.286;10.788;2023-04-06T09:28:47;10.90;;;8.00;;
3337;SDS011;1682;49.286;10.788;2023-04-06T09:31:14;10.70;;;7.80;;
3337;SDS011;1682;49.286;10.788;2023-04-06T09:33:43;11.73;;;8.67;;
3337;SDS011;1682;49.286;10.788;2023-04-06T09:36:11;9.57;;;8.20;;
3337;SDS011;1682;49.286;10.788;2023-04-06T09:38:50;9.80;;;8.20;;
3337;SDS011;1682;49.286;10.788;2023-04-06T09:41:22;8.50;;;7.57;;
3337;SDS011;1682;49.286;10.788;2023-04-06T09:43:50;9.00;;;7.80;;
3337;SDS011;1682;49.286;10.788;2023-04-06T09:46:17;7.70;;;6.90;;
3337;SDS011;1682;49.286;10.788;2023-04-06T09:48:44;9.50;;;8.53;;
3337;SDS011;1682;49.286;10.788;2023-04-06T09:51:12;10.90;;;7.63;;
3337;SDS011;1682;49.286;10.788;2023-04-06T09:53:41;17.53;;;9.83;;
3337;SDS011;1682;49.286;10.788;2023-04-06T09:56:12;14.67;;;11.13;;
3337;SDS011;1682;49.286;10.788;2023-04-06T09:58:45;9.30;;;8.20;;
3337;SDS011;1682;49.286;10.788;2023-04-06T10:01:15;10.53;;;8.20;;
3337;SDS011;1682;49.286;10.788;2023-04-06T10:03:45;8.93;;;8.03;;
3337;SDS011;1682;49.286;10.788;2023-04-06T10:06:12;7.97;;;7.23;;
3337;SDS011;1682;49.286;10.788;2023-04-06T10:08:40;7.37;;;6.60;;
3337;SDS011;1682;49.286;10.788;2023-04-06T10:11:09;10.80;;;8.10;;
3337;SDS011;1682;49.286;10.788;2023-04-06T10:13:37;9.73;;;7.67;;
3337;SDS011;1682;49.286;10.788;2023-04-06T10:16:06;7.37;;;6.50;;
3337;SDS011;1682;49.286;10.788;2023-04-06T10:18:34;9.97;;;7.40;;
3337;SDS011;1682;49.286;10.788;2023-04-06T10:21:04;11.43;;;8.33;;
3337;SDS011;1682;49.286;10.788;2023-04-06T10:23:33;9.17;;;7.20;;
3337;SDS011;1682;49.286;10.788;2023-04-06T10:26:02;9.20;;;8.23;;
3337;SDS011;1682;49.286;10.788;2023-04-06T10:28:30;9.70;;;7.73;;
3337;SDS011;1682;49.286;10.788;2023-04-06T10:30:58;15.27;;;9.63;;
3337;SDS011;1682;49.286;10.788;2023-04-06T10:33:28;8.40;;;6.93;;
3337;SDS011;1682;49.286;10.788;2023-04-06T10:35:55;10.03;;;7.90;;
3337;SDS011;1682;49.286;10.788;2023-04-06T10:38:32;12.63;;;8.17;;
3337;SDS011;1682;49.286;10.788;2023-04-06T10:41:03;9.57;;;7.43;;
3337;SDS011;1682;49.286;10.788;2023-04-06T10:43:32;10.63;;;8.20;;
3337;SDS011;1682;49.286;10.788;2023-04-06T10:46:00;8.67;;;7.40;;
3337;SDS011;1682;49.286;10.788;2023-04-06T10:48:37;8.67;;;7.07;;
3337;SDS011;1682;49.286;10.788;2023-04-06T10:51:07;8.87;;;7.63;;
3337;SDS011;1682;49.286;10.788;2023-04-06T10:53:34;10.80;;;8.40;;
3337;SDS011;1682;49.286;10.788;2023-04-06T10:56:02;13.03;;;7.20;;
3337;SDS011;1682;49.286;10.788;2023-04-06T10:58:30;8.87;;;6.50;;
3337;SDS011;1682;49.286;10.788;2023-04-06T11:01:00;7.10;;;6.40;;
3337;SDS011;1682;49.286;10.788;2023-04-06T11:03:27;7.80;;;7.00;;
3337;SDS011;1682;49.286;10.788;2023-04-06T11:05:56;7.80;;;7.10;;
3337;SDS011;1682;49.286;10.788;2023-04-06T11:08:24;8.07;;;7.23;;
3337;SDS011;1682;49.286;10.788;2023-04-06T11:10:52;7.50;;;6.10;;
3337;SDS011;1682;49.286;10.788;2023-04-06T11:13:19;7.40;;;6.70;;
3337;SDS011;1682;49.286;10.788;2023-04-06T11:15:47;8.50;;;5.90;;
3337;SDS011;1682;49.286;10.788;2023-04-06T11:18:16;8.57;;;6.67;;
3337;SDS011;1682;49.286;10.788;2023-04-06T11:20:47;7.37;;;6.23;;
3337;SDS011;1682;49.286;10.788;2023-04-06T11:23:23;10.13;;;6.93;;
3337;SDS011;1682;49.286;10.788;2023-04-06T11:25:51;7.90;;;7.17;;
3337;SDS011;1682;49.286;10.788;2023-04-06T11:28:18;7.33;;;5.93;;
3337;SDS011;1682;49.286;10.788;2023-04-06T11:30:46;6.07;;;5.57;;
3337;SDS011;1682;49.286;10.788;2023-04-06T11:33:19;7.67;;;6.60;;
3337;SDS011;1682;49.286;10.788;2023-04-06T11:35:47;9.77;;;7.40;;
3337;SDS011;1682;49.286;10.788;2023-04-06T11:38:15;6.20;;;5.40;;
3337;SDS011;1682;49.286;10.788;2023-04-06T11:40:43;7.93;;;6.43;;
3337;SDS011;1682;49.286;10.788;2023-04-06T11:43:11;7.83;;;6.57;;
3337;SDS011;1682;49.286;10.788;2023-04-06T11:45:41;8.43;;;5.67;;
3337;SDS011;1682;49.286;10.788;2023-04-06T11:48:17;6.67;;;6.00;;
3337;SDS011;1682;49.286;10.788;2023-04-06T11:50:46;11.77;;;6.40;;
3337;SDS011;1682;49.286;10.788;2023-04-06T11:53:14;8.03;;;6.03;;
3337;SDS011;1682;49.286;10.788;2023-04-06T11:55:41;8.90;;;6.67;;
3337;SDS011;1682;49.286;10.788;2023-04-06T11:58:13;9.17;;;6.57;;
3337;SDS011;1682;49.286;10.788;2023-04-06T12:00:40;7.40;;;6.33;;
3337;SDS011;1682;49.286;10.788;2023-04-06T12:03:10;6.47;;;5.97;;
3337;SDS011;1682;49.286;10.788;2023-04-06T12:05:37;5.97;;;5.43;;
3337;SDS011;1682;49.286;10.788;2023-04-06T12:08:04;7.13;;;6.43;;
3337;SDS011;1682;49.286;10.788;2023-04-06T12:10:32;6.93;;;5.60;;
3337;SDS011;1682;49.286;10.788;2023-04-06T12:12:59;7.03;;;6.37;;
3337;SDS011;1682;49.286;10.788;2023-04-06T12:15:28;6.10;;;5.60;;
3337;SDS011;1682;49.286;10.788;2023-04-06T12:17:55;6.63;;;6.03;;
3337;SDS011;1682;49.286;10.788;2023-04-06T12:20:22;7.03;;;6.13;;
3337;SDS011;1682;49.286;10.788;2023-04-06T12:22:49;6.10;;;5.60;;
3337;SDS011;1682;49.286;10.788;2023-04-06T12:25:17;6.57;;;5.60;;
3337;SDS011;1682;49.286;10.788;2023-04-06T12:27:44;6.57;;;5.97;;
3337;SDS011;1682;49.286;10.788;2023-04-06T12:30:12;4.90;;;4.40;;
3337;SDS011;1682;49.286;10.788;2023-04-06T12:32:41;5.83;;;5.43;;
3337;SDS011;1682;49.286;10.788;2023-04-06T12:35:08;6.60;;;6.00;;
3337;SDS011;1682;49.286;10.788;2023-04-06T12:37:37;6.70;;;6.10;;
3337;SDS011;1682;49.286;10.788;2023-04-06T12:40:05;6.50;;;5.90;;
3337;SDS011;1682;49.286;10.788;2023-04-06T12:42:34;4.87;;;4.57;;
3337;SDS011;1682;49.286;10.788;2023-04-06T12:45:01;6.00;;;5.50;;
3337;SDS011;1682;49.286;10.788;2023-04-06T12:47:28;5.67;;;5.17;;
3337;SDS011;1682;49.286;10.788;2023-04-06T12:49:57;5.90;;;5.40;;
3337;SDS011;1682;49.286;10.788;2023-04-06T12:52:24;6.30;;;5.70;;
3337;SDS011;1682;49.286;10.788;2023-04-06T12:54:52;7.07;;;6.47;;
3337;SDS011;1682;49.286;10.788;2023-04-06T12:57:19;6.37;;;5.80;;
3337;SDS011;1682;49.286;10.788;2023-04-06T12:59:47;6.33;;;5.87;;
3337;SDS011;1682;49.286;10.788;2023-04-06T13:02:14;6.97;;;5.90;;
3337;SDS011;1682;49.286;10.788;2023-04-06T13:04:41;6.30;;;5.80;;
3337;SDS011;1682;49.286;10.788;2023-04-06T13:07:10;6.00;;;5.50;;
3337;SDS011;1682;49.286;10.788;2023-04-06T13:09:37;6.47;;;5.97;;
3337;SDS011;1682;49.286;10.788;2023-04-06T13:12:04;6.13;;;5.00;;
3337;SDS011;1682;49.286;10.788;2023-04-06T13:14:32;6.10;;;5.60;;
3337;SDS011;1682;49.286;10.788;2023-04-06T13:16:59;6.20;;;5.30;;
3337;SDS011;1682;49.286;10.788;2023-04-06T13:19:27;5.60;;;5.10;;
3337;SDS011;1682;49.286;10.788;2023-04-06T13:21:56;6.35;;;5.85;;
3337;SDS011;1682;49.286;10.788;2023-04-06T13:24:25;5.63;;;5.20;;
3337;SDS011;1682;49.286;10.788;2023-04-06T13:26:52;5.63;;;5.13;;
3337;SDS011;1682;49.286;10.788;2023-04-06T13:29:19;5.32;;;4.93;;
3337;SDS011;1682;49.286;10.788;2023-04-06T13:31:47;6.43;;;5.93;;
3337;SDS011;1682;49.286;10.788;2023-04-06T13:34:14;6.03;;;5.57;;
3337;SDS011;1682;49.286;10.788;2023-04-06T13:36:41;7.80;;;6.25;;
3337;SDS011;1682;49.286;10.788;2023-04-06T13:39:08;6.85;;;5.88;;
3337;SDS011;1682;49.286;10.788;2023-04-06T13:41:37;6.93;;;6.43;;
3337;SDS011;1682;49.286;10.788;2023-04-06T13:44:05;7.88;;;7.07;;
3337;SDS011;1682;49.286;10.788;2023-04-06T13:46:32;6.97;;;6.47;;
3337;SDS011;1682;49.286;10.788;2023-04-06T13:48:59;6.35;;;5.78;;
3337;SDS011;1682;49.286;10.788;2023-04-06T13:51:27;8.90;;;6.78;;
3337;SDS011;1682;49.286;10.788;2023-04-06T13:53:55;6.32;;;5.88;;
3337;SDS011;1682;49.286;10.788;2023-04-06T13:56:23;6.80;;;6.20;;
3337;SDS011;1682;49.286;10.788;2023-04-06T13:58:54;6.50;;;5.90;;
3337;SDS011;1682;49.286;10.788;2023-04-06T14:01:22;6.70;;;6.15;;
3337;SDS011;1682;49.286;10.788;2023-04-06T14:03:51;9.77;;;7.53;;
3337;SDS011;1682;49.286;10.788;2023-04-06T14:06:18;7.90;;;7.13;;
3337;SDS011;1682;49.286;10.788;2023-04-06T14:08:46;6.63;;;6.13;;
3337;SDS011;1682;49.286;10.788;2023-04-06T14:11:13;9.07;;;7.72;;
3337;SDS011;1682;49.286;10.788;2023-04-06T14:13:41;8.05;;;6.65;;
3337;SDS011;1682;49.286;10.788;2023-04-06T14:16:10;7.97;;;7.18;;
3337;SDS011;1682;49.286;10.788;2023-04-06T14:18:37;7.28;;;6.78;;
3337;SDS011;1682;49.286;10.788;2023-04-06T14:21:04;8.38;;;7.57;;
3337;SDS011;1682;49.286;10.788;2023-04-06T14:23:32;7.55;;;6.95;;
3337;SDS011;1682;49.286;10.788;2023-04-06T14:26:00;7.07;;;6.47;;
3337;SDS011;1682;49.286;10.788;2023-04-06T14:28:29;6.40;;;5.90;;
3337;SDS011;1682;49.286;10.788;2023-04-06T14:30:56;6.97;;;6.37;;
3337;SDS011;1682;49.286;10.788;2023-04-06T14:33:24;7.63;;;7.13;;
3337;SDS011;1682;49.286;10.788;2023-04-06T14:35:52;7.93;;;7.20;;
3337;SDS011;1682;49.286;10.788;2023-04-06T14:38:19;6.87;;;6.27;;
3337;SDS011;1682;49.286;10.788;2023-04-06T14:40:46;8.10;;;7.50;;
3337;SDS011;1682;49.286;10.788;2023-04-06T14:43:13;7.60;;;7.00;;
3337;SDS011;1682;49.286;10.788;2023-04-06T14:45:41;6.70;;;6.13;;
3337;SDS011;1682;49.286;10.788;2023-04-06T14:48:08;9.40;;;8.50;;
3337;SDS011;1682;49.286;10.788;2023-04-06T14:50:38;8.20;;;7.40;;
3337;SDS011;1682;49.286;10.788;2023-04-06T14:53:06;10.13;;;9.13;;
3337;SDS011;1682;49.286;10.788;2023-04-06T14:55:38;16.90;;;12.60;;
3337;SDS011;1682;49.286;10.788;2023-04-06T14:58:06;14.53;;;11.30;;